Ballouville, Connecticut
Current Conditions -  °F | °C
As of 5:52 PM on Tuesday 21 Oct 2014 (Local Time) from KIJD Reporting Station
Light Rain Light Rain  
Wind Chill: 62°   Ceiling: 7500
Heat Index: 62°   Visibility: 10mi
Dew Point: 48°   Wind: 0mph
Humidity: 60%   Direction: NA
Pressure: 29.89"   Gusts: NA
Location:  41.88°N, 71.86°W
Report Text: KIJD 212152Z AUTO 00000KT 10SM -RA BKN075 OVC100 17/09 A2989 RMK AO2 RAB47 SLP120 P0000 T01670089
Loading
Personal Weather Stations






























Interactive Weather Map
Tropical Storm Tracking
New forecast layout! Learn more

10-Day Weather Forecast

Advertisements
Track Severe Weather on mobile